createdAt,value
2022-12-20T00:01:13.405Z,24.30
2022-12-20T00:03:39.716Z,24.00
2022-12-20T00:06:06.956Z,24.63
2022-12-20T00:08:33.305Z,23.65
2022-12-20T00:10:59.682Z,23.02
2022-12-20T00:13:26.048Z,23.33
2022-12-20T00:15:52.470Z,22.77
2022-12-20T00:18:18.915Z,23.17
2022-12-20T00:20:45.325Z,22.67
2022-12-20T00:23:11.806Z,22.65
2022-12-20T00:25:38.133Z,22.70
2022-12-20T00:28:04.799Z,23.35
2022-12-20T00:30:31.147Z,21.92
2022-12-20T00:32:57.445Z,21.70
2022-12-20T00:35:23.804Z,23.27
2022-12-20T00:37:50.185Z,21.35
2022-12-20T00:40:16.749Z,20.27
2022-12-20T00:42:43.517Z,20.73
2022-12-20T00:45:09.810Z,21.55
2022-12-20T00:47:36.290Z,21.83
2022-12-20T00:50:02.590Z,21.45
2022-12-20T00:52:29.134Z,23.23
2022-12-20T00:54:55.540Z,21.23
2022-12-20T00:57:22.047Z,21.75
2022-12-20T00:59:48.716Z,21.23
2022-12-20T01:02:15.198Z,21.27
2022-12-20T01:04:41.639Z,20.67
2022-12-20T01:07:08.188Z,20.85
2022-12-20T01:09:35.081Z,21.40
2022-12-20T01:12:01.519Z,21.13
2022-12-20T01:14:28.000Z,20.05
2022-12-20T01:16:54.550Z,20.73
2022-12-20T01:19:20.979Z,21.30
2022-12-20T01:21:47.299Z,20.27
2022-12-20T01:24:13.601Z,21.20
2022-12-20T01:26:40.034Z,21.05
2022-12-20T01:29:06.369Z,20.60
2022-12-20T01:31:33.024Z,20.08
2022-12-20T01:33:59.365Z,20.60
2022-12-20T01:36:25.708Z,19.00
2022-12-20T01:38:52.010Z,20.65
2022-12-20T01:41:18.486Z,19.33
2022-12-20T01:43:45.104Z,19.88
2022-12-20T01:46:11.483Z,19.58
2022-12-20T01:48:37.867Z,19.95
2022-12-20T01:51:04.396Z,19.00
2022-12-20T01:53:30.853Z,19.20
2022-12-20T01:55:57.218Z,19.08
2022-12-20T01:58:23.569Z,20.75
2022-12-20T02:00:50.025Z,18.63
2022-12-20T02:03:16.585Z,20.25
2022-12-20T02:05:43.470Z,19.13
2022-12-20T02:08:10.180Z,20.35
2022-12-20T02:10:36.517Z,18.58
2022-12-20T02:13:03.272Z,19.00
2022-12-20T02:15:30.139Z,19.65
2022-12-20T02:17:56.739Z,19.88
2022-12-20T02:20:23.367Z,19.23
2022-12-20T02:22:50.017Z,18.85
2022-12-20T02:25:16.373Z,19.48
2022-12-20T02:27:42.758Z,19.67
2022-12-20T02:30:12.794Z,19.27
2022-12-20T02:32:39.128Z,18.80
2022-12-20T02:35:05.432Z,18.73
2022-12-20T02:37:32.043Z,18.88
2022-12-20T02:39:58.429Z,17.95
2022-12-20T02:42:24.741Z,19.77
2022-12-20T02:44:51.093Z,18.83
2022-12-20T02:47:17.392Z,18.33
2022-12-20T02:49:43.674Z,19.02
2022-12-20T02:52:10.317Z,18.02
2022-12-20T02:54:36.605Z,18.40
2022-12-20T02:57:03.335Z,18.17
2022-12-20T02:59:29.835Z,19.08
2022-12-20T03:01:56.386Z,18.70
2022-12-20T03:04:22.899Z,17.77
2022-12-20T03:06:49.625Z,17.38
2022-12-20T03:09:15.953Z,18.70
2022-12-20T03:11:42.256Z,17.50
2022-12-20T03:16:52.883Z,18.02
2022-12-20T03:19:19.307Z,17.60
2022-12-20T03:21:45.723Z,16.95
2022-12-20T03:24:12.112Z,18.20
2022-12-20T03:26:38.549Z,18.80
2022-12-20T03:29:05.096Z,18.73
2022-12-20T03:31:31.503Z,18.70
2022-12-20T03:33:57.871Z,17.08
2022-12-20T03:36:24.362Z,17.67
2022-12-20T03:38:50.639Z,17.40
2022-12-20T03:41:16.954Z,17.35
2022-12-20T03:43:43.325Z,18.38
2022-12-20T03:46:09.689Z,17.65
2022-12-20T03:48:36.026Z,17.75
2022-12-20T03:51:02.470Z,17.83
2022-12-20T03:53:28.831Z,17.98
2022-12-20T03:55:55.317Z,18.40
2022-12-20T03:58:22.045Z,17.15
2022-12-20T04:00:48.595Z,17.60
2022-12-20T04:03:15.183Z,18.02
2022-12-20T04:05:41.590Z,18.02
2022-12-20T04:08:07.922Z,17.65
2022-12-20T04:10:34.221Z,17.23
2022-12-20T04:13:00.758Z,16.48
2022-12-20T04:15:27.277Z,18.08
2022-12-20T04:17:53.684Z,18.60
2022-12-20T04:20:20.037Z,16.42
2022-12-20T04:22:46.511Z,17.77
2022-12-20T04:25:13.066Z,17.70
2022-12-20T04:27:39.791Z,17.58
2022-12-20T04:30:06.454Z,16.90
2022-12-20T04:32:32.868Z,18.00
2022-12-20T04:34:59.106Z,17.50
2022-12-20T04:37:25.598Z,17.10
2022-12-20T04:39:51.853Z,17.42
2022-12-20T04:42:18.627Z,16.85
2022-12-20T04:44:45.217Z,16.60
2022-12-20T04:47:11.498Z,16.83
2022-12-20T04:49:38.107Z,16.55
2022-12-20T04:52:04.757Z,17.52
2022-12-20T04:54:31.074Z,17.83
2022-12-20T04:56:57.349Z,16.73
2022-12-20T04:59:23.919Z,17.08
2022-12-20T05:01:50.895Z,16.27
2022-12-20T05:04:17.413Z,17.00
2022-12-20T05:06:44.050Z,17.02
2022-12-20T05:09:10.338Z,17.13
2022-12-20T05:11:36.607Z,16.42
2022-12-20T05:14:02.919Z,17.23
2022-12-20T05:16:29.375Z,16.17
2022-12-20T05:18:55.899Z,17.20
2022-12-20T05:21:22.245Z,18.15
2022-12-20T05:23:48.764Z,16.40
2022-12-20T05:26:15.061Z,16.40
2022-12-20T05:28:41.364Z,16.77
2022-12-20T05:31:07.755Z,16.98
2022-12-20T05:33:34.480Z,17.40
2022-12-20T05:36:00.873Z,17.60
2022-12-20T05:38:27.433Z,17.58
2022-12-20T05:40:53.836Z,17.08
2022-12-20T05:43:20.639Z,16.65
2022-12-20T05:45:46.992Z,16.80
2022-12-20T05:48:13.423Z,15.93
2022-12-20T05:50:39.767Z,16.17
2022-12-20T05:53:11.576Z,16.95
2022-12-20T05:55:38.707Z,16.70
2022-12-20T05:58:05.678Z,17.63
2022-12-20T06:00:32.019Z,15.85
2022-12-20T06:02:59.100Z,16.58
2022-12-20T06:05:25.826Z,15.23
2022-12-20T06:07:52.141Z,15.88
2022-12-20T06:10:18.696Z,17.90
2022-12-20T06:12:45.048Z,16.25
2022-12-20T06:15:11.336Z,16.52
2022-12-20T06:17:38.148Z,16.25
2022-12-20T06:20:04.449Z,15.93
2022-12-20T06:22:30.945Z,16.33
2022-12-20T06:24:57.621Z,15.68
2022-12-20T06:27:23.976Z,16.88
2022-12-20T06:29:50.800Z,16.38
2022-12-20T06:32:17.861Z,16.10
2022-12-20T06:34:44.185Z,14.77
2022-12-20T06:37:10.838Z,15.93
2022-12-20T06:39:37.448Z,16.85
2022-12-20T06:42:03.856Z,16.92
2022-12-20T06:44:30.164Z,14.85
2022-12-20T06:46:56.484Z,16.20
2022-12-20T06:49:23.018Z,14.93
2022-12-20T06:51:49.548Z,15.45
2022-12-20T06:54:15.864Z,15.48
2022-12-20T06:56:42.305Z,17.27
2022-12-20T06:59:08.566Z,15.63
2022-12-20T07:01:35.068Z,16.20
2022-12-20T07:04:01.573Z,16.20
2022-12-20T07:06:28.239Z,15.25
2022-12-20T07:08:54.598Z,15.52
2022-12-20T07:11:20.939Z,16.00
2022-12-20T07:13:47.265Z,16.65
2022-12-20T07:16:13.752Z,14.45
2022-12-20T07:18:40.224Z,14.90
2022-12-20T07:21:07.111Z,15.90
2022-12-20T07:23:33.677Z,15.60
2022-12-20T07:26:00.150Z,16.25
2022-12-20T07:28:27.000Z,16.08
2022-12-20T07:30:53.369Z,16.23
2022-12-20T07:33:20.029Z,15.13
2022-12-20T07:38:19.817Z,16.70
2022-12-20T07:40:46.090Z,16.10
2022-12-20T07:43:12.562Z,16.48
2022-12-20T07:45:39.187Z,15.38
2022-12-20T07:48:11.405Z,16.60
2022-12-20T07:50:41.967Z,17.55
2022-12-20T07:53:08.287Z,17.17
2022-12-20T07:55:35.243Z,17.30
2022-12-20T07:58:02.016Z,18.70
2022-12-20T08:00:28.630Z,18.42
2022-12-20T08:02:55.173Z,18.42
2022-12-20T08:05:21.718Z,18.20
2022-12-20T08:07:51.127Z,16.92
2022-12-20T08:10:21.439Z,17.65
2022-12-20T08:12:47.863Z,18.83
2022-12-20T08:15:14.292Z,18.13
2022-12-20T08:17:40.658Z,17.13
2022-12-20T08:20:07.223Z,17.33
2022-12-20T08:22:33.669Z,17.48
2022-12-20T08:24:59.942Z,18.63
2022-12-20T08:27:26.284Z,18.60
2022-12-20T08:29:52.793Z,17.92
2022-12-20T08:32:19.100Z,17.27
2022-12-20T08:34:45.524Z,18.52
2022-12-20T08:37:14.918Z,18.35
2022-12-20T08:39:42.018Z,17.15
2022-12-20T08:42:08.440Z,18.27
2022-12-20T08:44:34.976Z,17.10
2022-12-20T08:47:01.513Z,16.83
2022-12-20T08:49:27.775Z,17.75
2022-12-20T08:51:54.688Z,17.10
2022-12-20T08:54:21.141Z,16.55
2022-12-20T08:56:47.792Z,16.20
2022-12-20T08:59:14.146Z,17.13
2022-12-20T09:01:41.639Z,18.33
2022-12-20T09:04:08.160Z,17.55
2022-12-20T09:06:34.479Z,17.35
2022-12-20T09:09:00.782Z,17.83
2022-12-20T09:11:27.439Z,17.00
2022-12-20T09:13:53.826Z,17.45
2022-12-20T09:16:20.136Z,17.98
2022-12-20T09:18:46.987Z,17.27
2022-12-20T09:21:13.413Z,17.83
2022-12-20T09:23:40.022Z,19.15
2022-12-20T09:26:06.434Z,16.80
2022-12-20T09:28:32.892Z,16.98
2022-12-20T09:33:40.272Z,16.00
2022-12-20T09:36:06.697Z,17.08
2022-12-20T09:38:33.201Z,17.38
2022-12-20T09:40:59.622Z,16.58
2022-12-20T09:43:25.991Z,16.70
2022-12-20T09:45:52.435Z,17.30
2022-12-20T09:48:18.929Z,16.73
2022-12-20T09:50:45.504Z,17.15
2022-12-20T09:53:16.574Z,15.88
2022-12-20T09:55:44.675Z,17.65
2022-12-20T09:58:11.062Z,17.88
2022-12-20T10:00:37.682Z,16.65
2022-12-20T10:03:09.837Z,17.15
2022-12-20T10:05:41.420Z,17.02
2022-12-20T10:08:08.409Z,16.83
2022-12-20T10:10:35.056Z,16.30
2022-12-20T10:13:01.679Z,16.27
2022-12-20T10:15:28.186Z,16.40
2022-12-20T10:17:54.675Z,17.77
2022-12-20T10:20:21.002Z,18.95
2022-12-20T10:22:47.777Z,19.15
2022-12-20T10:25:14.161Z,20.90
2022-12-20T10:27:40.541Z,19.95
2022-12-20T10:30:07.131Z,20.73
2022-12-20T10:32:33.500Z,20.83
2022-12-20T10:35:00.120Z,20.02
2022-12-20T10:40:06.958Z,20.95
2022-12-20T10:42:34.063Z,20.95
2022-12-20T10:45:00.779Z,19.13
2022-12-20T10:47:27.172Z,20.15
2022-12-20T10:49:53.506Z,20.25
2022-12-20T10:52:19.920Z,21.58
2022-12-20T10:54:46.299Z,20.33
2022-12-20T10:57:14.908Z,19.25
2022-12-20T10:59:41.809Z,20.20
2022-12-20T11:02:08.189Z,20.48
2022-12-20T11:04:34.765Z,20.58
2022-12-20T11:07:01.247Z,21.73
2022-12-20T11:09:27.559Z,20.10
2022-12-20T11:11:53.891Z,19.65
2022-12-20T11:14:20.557Z,20.67
2022-12-20T11:16:46.970Z,19.80
2022-12-20T11:19:13.789Z,20.15
2022-12-20T11:21:40.180Z,18.98
2022-12-20T11:24:06.682Z,20.00
2022-12-20T11:26:33.242Z,19.58
2022-12-20T11:28:59.740Z,19.17
2022-12-20T11:31:26.420Z,19.02
2022-12-20T11:33:53.115Z,19.13
2022-12-20T11:36:19.462Z,19.05
2022-12-20T11:38:45.830Z,18.92
2022-12-20T11:41:12.205Z,20.15
2022-12-20T11:44:00.890Z,19.38
2022-12-20T11:46:25.047Z,18.42
2022-12-20T11:48:51.637Z,19.33
2022-12-20T11:51:21.489Z,19.27
2022-12-20T11:53:52.359Z,18.67
2022-12-20T11:56:18.686Z,19.55
2022-12-20T11:58:45.319Z,18.65
2022-12-20T12:01:11.623Z,20.60
2022-12-20T12:03:37.994Z,21.15
2022-12-20T12:06:04.536Z,18.27
2022-12-20T12:08:31.051Z,24.20
2022-12-20T12:10:57.879Z,21.38
2022-12-20T12:13:24.202Z,20.48
2022-12-20T12:15:50.513Z,20.05
2022-12-20T12:18:17.051Z,18.77
2022-12-20T12:20:43.676Z,19.88
2022-12-20T12:23:10.046Z,20.83
2022-12-20T12:25:36.370Z,19.35
2022-12-20T12:30:31.882Z,20.20
2022-12-20T12:32:58.787Z,20.02
2022-12-20T12:35:25.410Z,18.48
2022-12-20T12:37:51.822Z,19.13
2022-12-20T12:40:18.401Z,19.52
2022-12-20T12:42:44.690Z,19.63
2022-12-20T12:45:11.029Z,19.25
2022-12-20T12:47:37.682Z,18.30
2022-12-20T12:50:04.042Z,19.60
2022-12-20T12:52:35.503Z,19.15
2022-12-20T12:55:02.316Z,18.05
2022-12-20T12:57:28.935Z,18.00
2022-12-20T12:59:55.584Z,18.48
2022-12-20T13:02:22.088Z,19.00
2022-12-20T13:04:48.750Z,18.77
2022-12-20T13:07:15.463Z,19.15
2022-12-20T13:09:41.987Z,17.55
2022-12-20T13:12:11.744Z,17.33
2022-12-20T13:14:39.405Z,18.25
2022-12-20T13:17:15.435Z,18.55
2022-12-20T13:19:44.745Z,19.63
2022-12-20T13:22:11.025Z,18.13
2022-12-20T13:24:37.604Z,17.83
2022-12-20T13:27:04.106Z,19.10
2022-12-20T13:29:30.651Z,18.00
2022-12-20T13:31:56.944Z,18.42
2022-12-20T13:34:23.400Z,17.40
2022-12-20T13:36:49.815Z,18.35
2022-12-20T13:39:16.419Z,18.55
2022-12-20T13:41:42.823Z,18.48
2022-12-20T13:44:09.351Z,18.00
2022-12-20T13:46:36.023Z,19.15
2022-12-20T13:49:02.357Z,18.65
2022-12-20T13:51:28.995Z,17.75
2022-12-20T13:53:55.544Z,18.80
2022-12-20T13:56:21.894Z,16.17
2022-12-20T13:58:48.480Z,18.02
2022-12-20T14:01:14.849Z,16.98
2022-12-20T14:03:41.649Z,17.55
2022-12-20T14:06:08.351Z,18.90
2022-12-20T14:08:35.069Z,18.33
2022-12-20T14:11:01.943Z,18.55
2022-12-20T14:13:28.251Z,17.83
2022-12-20T14:15:54.652Z,18.17
2022-12-20T14:18:21.123Z,17.92
2022-12-20T14:20:47.510Z,18.10
2022-12-20T14:23:14.315Z,18.02
2022-12-20T14:25:40.971Z,18.45
2022-12-20T14:28:07.361Z,19.65
2022-12-20T14:30:33.704Z,17.58
2022-12-20T14:33:00.411Z,18.02
2022-12-20T14:35:26.790Z,17.70
2022-12-20T14:37:53.137Z,17.98
2022-12-20T14:40:19.601Z,18.27
2022-12-20T14:42:45.901Z,18.38
2022-12-20T14:45:12.220Z,17.25
2022-12-20T14:47:38.792Z,17.92
2022-12-20T14:50:05.284Z,18.45
2022-12-20T14:52:31.629Z,19.17
2022-12-20T14:55:13.469Z,18.95
2022-12-20T14:57:39.814Z,19.42
2022-12-20T15:00:06.455Z,18.23
2022-12-20T15:02:32.960Z,17.45
2022-12-20T15:04:59.439Z,18.95
2022-12-20T15:07:26.312Z,18.33
2022-12-20T15:09:52.823Z,18.60
2022-12-20T15:12:19.496Z,18.05
2022-12-20T15:14:45.987Z,18.58
2022-12-20T15:17:12.451Z,18.05
2022-12-20T15:19:42.479Z,19.05
2022-12-20T15:22:09.494Z,17.38
2022-12-20T15:24:35.797Z,17.30
2022-12-20T15:27:02.487Z,18.50
2022-12-20T15:29:29.068Z,18.52
2022-12-20T15:31:56.138Z,16.55
2022-12-20T15:34:22.529Z,17.38
2022-12-20T15:36:49.212Z,17.60
2022-12-20T15:39:15.758Z,17.77
2022-12-20T15:41:42.232Z,18.35
2022-12-20T15:44:08.635Z,18.73
2022-12-20T15:46:34.943Z,19.20
2022-12-20T15:49:01.355Z,18.67
2022-12-20T15:51:27.834Z,18.55
2022-12-20T15:53:54.176Z,19.20
2022-12-20T15:56:20.515Z,18.48
2022-12-20T15:58:46.841Z,18.02
2022-12-20T16:01:13.409Z,18.15
2022-12-20T16:03:40.026Z,19.42
2022-12-20T16:06:06.602Z,19.60
2022-12-20T16:08:33.028Z,17.85
2022-12-20T16:10:59.446Z,19.42
2022-12-20T16:13:25.977Z,18.02
2022-12-20T16:15:52.793Z,17.60
2022-12-20T16:18:19.453Z,17.98
2022-12-20T16:20:46.026Z,18.15
2022-12-20T16:23:12.318Z,18.63
2022-12-20T16:25:38.859Z,18.77
2022-12-20T16:28:05.130Z,17.45
2022-12-20T16:30:31.480Z,19.17
2022-12-20T16:32:57.979Z,18.35
2022-12-20T16:35:24.245Z,18.50
2022-12-20T16:37:51.252Z,17.02
2022-12-20T16:40:17.870Z,18.20
2022-12-20T16:42:44.164Z,18.55
2022-12-20T16:45:10.821Z,18.95
2022-12-20T16:47:37.193Z,19.08
2022-12-20T16:50:03.788Z,19.02
2022-12-20T16:52:30.203Z,18.55
2022-12-20T16:54:56.795Z,17.70
2022-12-20T16:57:23.485Z,17.48
2022-12-20T16:59:49.807Z,18.02
2022-12-20T17:02:16.604Z,19.05
2022-12-20T17:04:43.203Z,18.23
2022-12-20T17:07:09.614Z,17.63
2022-12-20T17:12:20.131Z,17.98
2022-12-20T17:14:46.535Z,18.55
2022-12-20T17:17:13.471Z,17.67
2022-12-20T17:19:39.787Z,17.88
2022-12-20T17:24:50.466Z,17.63
2022-12-20T17:27:16.955Z,16.80
2022-12-20T17:29:43.617Z,17.95
2022-12-20T17:32:10.107Z,18.30
2022-12-20T17:34:36.722Z,18.30
2022-12-20T17:42:24.295Z,19.65
2022-12-20T17:44:53.683Z,20.20
2022-12-20T17:47:20.070Z,21.08
2022-12-20T17:49:46.477Z,19.90
2022-12-20T17:52:13.243Z,20.00
2022-12-20T17:54:40.470Z,22.02
2022-12-20T17:57:07.102Z,36.85
2022-12-20T17:59:33.432Z,61.17
2022-12-20T18:02:00.357Z,65.15
2022-12-20T18:04:26.966Z,60.58
2022-12-20T18:06:53.373Z,57.05
2022-12-20T18:09:20.160Z,55.35
2022-12-20T18:11:46.679Z,50.75
2022-12-20T18:14:13.599Z,103.15
2022-12-20T18:16:40.054Z,152.48
2022-12-20T18:19:07.185Z,150.82
2022-12-20T18:21:33.643Z,139.18
2022-12-20T18:24:00.343Z,139.20
2022-12-20T18:26:27.003Z,129.65
2022-12-20T18:28:53.844Z,121.93
2022-12-20T18:31:20.448Z,126.03
2022-12-20T18:33:50.094Z,121.03
2022-12-20T18:36:18.874Z,124.28
2022-12-20T18:38:45.667Z,124.50
2022-12-20T18:41:12.264Z,117.53
2022-12-20T18:43:39.013Z,121.13
2022-12-20T18:46:05.793Z,119.20
2022-12-20T18:48:32.328Z,117.65
2022-12-20T18:50:58.614Z,126.70
2022-12-20T18:53:25.381Z,241.02
2022-12-20T18:55:52.170Z,244.07
2022-12-20T18:58:18.540Z,233.27
2022-12-20T19:00:45.517Z,221.45
2022-12-20T19:03:12.148Z,215.73
2022-12-20T19:05:39.101Z,201.38
2022-12-20T19:08:05.771Z,197.57
2022-12-20T19:10:32.534Z,191.13
2022-12-20T19:13:05.250Z,187.77
2022-12-20T19:15:32.616Z,174.60
2022-12-20T19:17:59.104Z,178.00
2022-12-20T19:20:25.442Z,172.38
2022-12-20T19:22:52.121Z,164.15
2022-12-20T19:25:18.355Z,155.20
2022-12-20T19:27:45.136Z,159.60
2022-12-20T19:30:11.638Z,152.35
2022-12-20T19:32:38.925Z,168.57
2022-12-20T19:35:29.664Z,337.13
2022-12-20T19:37:52.086Z,322.20
2022-12-20T19:40:18.530Z,368.67
2022-12-20T19:42:45.122Z,369.95
2022-12-20T19:45:11.432Z,363.55
2022-12-20T19:47:38.170Z,358.73
2022-12-20T19:50:04.491Z,349.50
2022-12-20T19:52:31.059Z,346.20
2022-12-20T19:54:58.159Z,341.48
2022-12-20T19:57:24.864Z,331.60
2022-12-20T19:59:55.696Z,436.45
2022-12-20T20:02:22.528Z,447.48
2022-12-20T20:04:49.118Z,416.80
2022-12-20T20:07:15.411Z,404.23
2022-12-20T20:09:41.999Z,394.65
2022-12-20T20:12:08.787Z,379.15
2022-12-20T20:14:36.676Z,361.80
2022-12-20T20:17:03.527Z,347.27
2022-12-20T20:19:30.361Z,358.52
2022-12-20T20:21:56.634Z,368.70
2022-12-20T20:24:23.063Z,363.70
2022-12-20T20:26:50.033Z,354.52
2022-12-20T20:29:16.406Z,343.45
2022-12-20T20:31:43.067Z,337.30
2022-12-20T20:34:09.433Z,368.35
2022-12-20T20:36:35.982Z,397.80
2022-12-20T20:39:02.472Z,380.10
2022-12-20T20:41:29.266Z,377.38
2022-12-20T20:43:56.115Z,370.55
2022-12-20T20:46:22.823Z,348.92
2022-12-20T20:48:49.211Z,385.63
2022-12-20T20:51:15.550Z,389.05
2022-12-20T20:53:41.829Z,368.77
2022-12-20T20:56:08.146Z,368.60
2022-12-20T20:58:34.563Z,380.00
2022-12-20T21:01:00.843Z,455.77
2022-12-20T21:03:27.672Z,455.75
2022-12-20T21:08:40.506Z,439.90
2022-12-20T21:11:06.993Z,425.80
2022-12-20T21:13:33.804Z,422.67
2022-12-20T21:16:00.700Z,415.30
2022-12-20T21:18:27.443Z,403.83
2022-12-20T21:20:53.738Z,398.50
2022-12-20T21:23:20.444Z,392.15
2022-12-20T21:25:46.846Z,391.23
2022-12-20T21:28:19.382Z,382.42
2022-12-20T21:30:47.569Z,376.75
2022-12-20T21:33:14.309Z,375.77
2022-12-20T21:35:40.860Z,369.45
2022-12-20T21:38:07.176Z,358.20
2022-12-20T21:40:33.568Z,355.98
2022-12-20T21:42:59.914Z,353.00
2022-12-20T21:45:26.703Z,344.70
2022-12-20T21:47:55.789Z,429.23
2022-12-20T21:50:26.029Z,537.53
2022-12-20T21:52:52.463Z,549.88
2022-12-20T21:55:18.763Z,545.20
2022-12-20T21:57:45.548Z,534.20
2022-12-20T22:00:12.287Z,527.08
2022-12-20T22:02:39.438Z,521.70
2022-12-20T22:05:06.130Z,508.63
2022-12-20T22:07:32.516Z,502.00
2022-12-20T22:09:59.241Z,495.58
2022-12-20T22:12:25.546Z,499.98
2022-12-20T22:14:51.891Z,479.42
2022-12-20T22:17:18.532Z,476.35
2022-12-20T22:19:45.396Z,465.42
2022-12-20T22:22:11.694Z,458.90
2022-12-20T22:24:38.054Z,436.98
2022-12-20T22:27:11.049Z,503.98
2022-12-20T22:29:38.197Z,541.92
2022-12-20T22:32:04.910Z,521.10
2022-12-20T22:34:31.370Z,516.85
2022-12-20T22:36:57.705Z,494.83
2022-12-20T22:39:24.383Z,506.20
2022-12-20T22:41:51.793Z,514.13
2022-12-20T22:44:18.240Z,532.58
2022-12-20T22:46:44.682Z,524.55
2022-12-20T22:49:11.025Z,520.00
2022-12-20T22:51:37.449Z,491.95
2022-12-20T22:54:04.155Z,540.60
2022-12-20T22:56:30.505Z,595.85
2022-12-20T22:58:57.209Z,574.92
2022-12-20T23:01:23.929Z,556.85
2022-12-20T23:03:51.040Z,542.58
2022-12-20T23:06:17.478Z,541.65
2022-12-20T23:08:44.241Z,524.92
2022-12-20T23:13:55.931Z,602.50
2022-12-20T23:16:22.707Z,558.75
2022-12-20T23:18:49.394Z,551.30
2022-12-20T23:21:16.310Z,545.47
2022-12-20T23:23:43.453Z,514.20
2022-12-20T23:26:09.837Z,514.63
2022-12-20T23:28:36.804Z,507.30
2022-12-20T23:31:03.106Z,492.98
2022-12-20T23:33:29.769Z,482.33
2022-12-20T23:35:56.142Z,465.55
2022-12-20T23:38:22.580Z,463.83
2022-12-20T23:40:49.216Z,453.10
2022-12-20T23:43:16.121Z,439.95
2022-12-20T23:45:42.545Z,427.65
2022-12-20T23:48:09.511Z,421.23
2022-12-20T23:50:35.868Z,409.98
2022-12-20T23:53:02.449Z,395.90
2022-12-20T23:58:12.088Z,383.55
